Thursday, November 15, 2018, 7:12 PM CST
Back to Local

KPWK, Chicago Executive Airport

Location: Wheeling, IL, United States Lat: 42.117
Local Time: 7:12 PM CST ( 1:12 GMT) Lon: -87.9
Time Zone: US/Central Elev: 646 ft

Show me the last for .
Show Decoded

2018-11-15 18:52 METAR KPWK 160052Z 22006KT 6SM HZ BKN012 OVC041 01/M02 A2991 RMK AO2 SLP136
                 T00061022 =
2018-11-15 18:47 METAR KPWK 160047Z 23005KT 6SM HZ BKN010 BKN014 OVC041 01/M02 A2991 RMK AO2 CIG
                 008V012 =
2018-11-15 18:06 METAR KPWK 160006Z 24004KT 4SM BR BKN006 BKN047 OVC055 01/M01 A2994 RMK AO2
                 T00061011 =
2018-11-15 17:52 METAR KPWK 152352Z VRB05KT 5SM BR FEW008 OVC050 01/M02 A2993 RMK AO2 SNE33
                 SLP142 P0000 60000 T00061017 10028 20006 58004 =
2018-11-15 17:25 METAR KPWK 152325Z 23005KT 3SM -SN BR FEW006 SCT020 OVC047 01/M01 A2993 RMK AO2
                 P0000 T00061011 =
2018-11-15 17:15 METAR KPWK 152315Z 22006KT 2SM -SN BR SCT008 BKN020 OVC055 01/M01 A2993 RMK AO2
                 P0000 T00061011 =
2018-11-15 17:02 METAR KPWK 152302Z 25007KT 1 1/2SM -SN BR BKN008 OVC018 01/M01 A2995 RMK AO2 CIG
                 006V011 P0000 T00111011 =
2018-11-15 16:52 METAR KPWK 152252Z 27008KT 2 1/2SM -SN BR OVC009 01/M01 A2995 RMK AO2
                 UPB31E46SNB46 SLP147 P0000 T00111011 =
2018-11-15 15:52 METAR KPWK 152152Z 23005KT 4SM HZ OVC008 02/M01 A2994 RMK AO2 SLP145 T00171011 =
2018-11-15 15:01 METAR KPWK 152101Z 28006KT 5SM HZ OVC009 02/M01 A2994 RMK AO2 CIG 008V012
                 T00221011 =
2018-11-15 14:52 METAR KPWK 152052Z 30006KT 6SM HZ BKN011 OVC017 02/M01 A2994 RMK AO2 CIG 008V012
                 SLP147 T00221011 56028 =
2018-11-15 14:43 METAR KPWK 152043Z 26005KT 9SM BKN011 OVC017 03/M01 A2995 RMK AO2 T00281011 =
2018-11-15 14:08 METAR KPWK 152008Z 00000KT 10SM OVC018 03/M01 A2995 RMK AO2 T00281006 =
2018-11-15 13:52 METAR KPWK 151952Z 00000KT 10SM BKN013 OVC020 03/M01 A2996 RMK AO2 SLP151
                 T00281006 =
2018-11-15 12:52 METAR KPWK 151852Z 00000KT 9SM OVC012 02/M01 A2999 RMK AO2 SLP164 T00221006 =
2018-11-15 11:59 METAR KPWK 151759Z 00000KT 5SM BR BKN007 OVC011 02/M01 A3002 RMK AO2 CIG 004V010
                 T00171006 =
2018-11-15 11:52 METAR KPWK 151752Z 00000KT 1 1/2SM BR OVC007 02/00 A3003 RMK AO2 SNE44 CIG
                 004V011 SLP176 P0004 60004 T00170000 10022 20000 58026 =
2018-11-15 10:59 METAR KPWK 151659Z 00000KT 1 1/4SM -SN BR BKN007 OVC010 01/M01 A3007 RMK AO2 CIG
                 004V008 P0001 T00111006 =
2018-11-15 10:52 METAR KPWK 151652Z 00000KT 2SM -SN BR OVC007 01/M01 A3007 RMK AO2 SLP191 P0000
                 T00111006 =
2018-11-15 10:23 METAR KPWK 151623Z 13003KT 2SM -SN BKN009 OVC015 01/M02 A3008 RMK AO2 P0000
                 T00111017 =
2018-11-15 10:12 METAR KPWK 151612Z 11003KT 2SM -SN FEW009 BKN015 OVC034 02/M02 A3008 RMK AO2
                 P0000 T00171017 =
2018-11-15 10:10 METAR KPWK 151610Z 00000KT 2SM -SN BKN015 OVC034 02/M02 A3008 RMK AO2 P0000
                 T00171017 =
2018-11-15 09:52 METAR KPWK 151552Z 08003KT 2SM -SN OVC034 02/M02 A3009 RMK AO2 SNB30 SLP196
                 P0000 T00171022 =
2018-11-15 08:52 METAR KPWK 151452Z 06005KT 10SM BKN043 OVC065 02/M04 A3011 RMK AO2 SLP202
                 T00221039 58025 =
2018-11-15 07:52 METAR KPWK 151352Z 10003KT 9SM OVC075 01/M04 A3015 RMK AO2 SLP217 T00111039 =
2018-11-15 06:52 METAR KPWK 151252Z 00000KT 10SM OVC110 00/M04 A3017 RMK AO2 SLP223 T00001039 =
2018-11-15 05:52 METAR KPWK 151152Z AUTO 00000KT 10SM OVC110 M01/M04 A3018 RMK AO2 SLP229
                 T10111044 11011 21050 56022 =
2018-11-15 04:52 METAR KPWK 151052Z AUTO 00000KT 10SM SCT120 M02/M04 A3021 RMK AO2 SLP237
                 T10171044 =
2018-11-15 03:52 METAR KPWK 150952Z AUTO 34003KT 10SM CLR M03/M06 A3022 RMK AO2 SLP243 T10331056
                 =
2018-11-15 02:52 METAR KPWK 150852Z AUTO 00000KT 10SM CLR M04/M06 A3025 RMK AO2 SLP251 T10391061
                 56029 =
2018-11-15 01:52 METAR KPWK 150752Z AUTO 00000KT 10SM CLR M03/M06 A3028 RMK AO2 SLP262 T10331061
                 =
2018-11-15 00:52 METAR KPWK 150652Z AUTO 00000KT 10SM CLR M03/M06 A3030 RMK AO2 SLP269 T10331061
                 =
2018-11-14 23:52 METAR KPWK 150552Z AUTO 00000KT 10SM CLR M03/M07 A3034 RMK AO2 SLP281 T10331067
                 11011 21044 400171078 56029 =
2018-11-14 23:30 METAR KPWK 150530Z AUTO 00000KT 10SM SCT024 M03/M06 A3034 RMK AO2 T10281061 =
2018-11-14 22:52 METAR KPWK 150452Z AUTO 00000KT 10SM BKN022 M03/M06 A3036 RMK AO2 SLP289
                 T10281056 =
2018-11-14 21:52 METAR KPWK 150352Z AUTO 00000KT 10SM OVC022 M03/M06 A3040 RMK AO2 SLP302
                 T10281061 =
2018-11-14 21:30 METAR KPWK 150330Z AUTO 00000KT 10SM BKN021 M03/M06 A3041 RMK AO2 T10331061 =
2018-11-14 20:52 METAR KPWK 150252Z 00000KT 10SM FEW020 M03/M07 A3042 RMK AO2 SLP312 T10281067
                 56015 =
2018-11-14 19:52 METAR KPWK 150152Z 16003KT 10SM CLR M04/M08 A3043 RMK AO2 SLP315 T10391078 =

Support USWX by starting your Amazon purchase here.